createdAt,value
2022-11-18T00:00:22.672Z,95.20
2022-11-18T00:02:53.871Z,95.10
2022-11-18T00:05:25.102Z,95.00
2022-11-18T00:07:56.104Z,95.00
2022-11-18T00:10:27.384Z,94.70
2022-11-18T00:13:20.033Z,94.60
2022-11-18T00:15:52.950Z,94.40
2022-11-18T00:18:30.407Z,94.30
2022-11-18T00:21:14.657Z,94.10
2022-11-18T00:23:46.282Z,93.90
2022-11-18T00:26:17.881Z,93.60
2022-11-18T00:28:48.918Z,93.60
2022-11-18T00:31:21.350Z,93.50
2022-11-18T00:33:52.393Z,93.30
2022-11-18T00:36:23.468Z,93.20
2022-11-18T00:38:54.515Z,93.20
2022-11-18T00:41:25.552Z,93.30
2022-11-18T00:43:56.785Z,93.40
2022-11-18T00:46:28.072Z,93.30
2022-11-18T00:49:00.819Z,93.40
2022-11-18T00:51:32.384Z,93.50
2022-11-18T00:54:03.758Z,93.40
2022-11-18T00:56:35.567Z,93.30
2022-11-18T00:59:06.622Z,93.30
2022-11-18T01:01:38.261Z,93.30
2022-11-18T01:04:09.360Z,93.30
2022-11-18T01:06:41.082Z,93.10
2022-11-18T01:09:12.128Z,93.20
2022-11-18T01:12:01.060Z,93.00
2022-11-18T01:14:32.250Z,92.90
2022-11-18T01:17:06.328Z,92.90
2022-11-18T01:19:39.869Z,92.90
2022-11-18T01:22:12.218Z,92.80
2022-11-18T01:24:44.068Z,92.70
2022-11-18T01:27:26.676Z,93.00
2022-11-18T01:29:53.212Z,93.00
2022-11-18T01:32:29.889Z,93.10
2022-11-18T01:35:11.961Z,93.10
2022-11-18T01:37:34.932Z,93.00
2022-11-18T01:40:07.825Z,92.80
2022-11-18T01:42:39.265Z,92.90
2022-11-18T01:45:24.524Z,92.70
2022-11-18T01:48:36.146Z,92.00
2022-11-18T01:51:12.271Z,92.10
2022-11-18T01:53:45.515Z,91.70
2022-11-18T01:59:17.263Z,91.70
2022-11-18T02:01:48.929Z,91.70
2022-11-18T02:04:20.474Z,91.60
2022-11-18T02:06:51.760Z,91.50
2022-11-18T02:09:28.100Z,91.10
2022-11-18T02:12:01.862Z,90.90
2022-11-18T02:14:45.075Z,90.90
2022-11-18T02:17:30.353Z,90.90
2022-11-18T02:20:32.957Z,90.40
2022-11-18T02:23:37.843Z,90.20
2022-11-18T02:26:27.725Z,90.00
2022-11-18T02:29:14.007Z,90.00
2022-11-18T02:31:56.891Z,89.90
2022-11-18T02:38:15.694Z,89.70
2022-11-18T02:40:54.425Z,89.50
2022-11-18T02:43:33.755Z,89.40
2022-11-18T02:46:13.104Z,89.50
2022-11-18T02:48:47.796Z,89.10
2022-11-18T02:51:21.345Z,89.20
2022-11-18T02:53:54.577Z,89.20
2022-11-18T02:56:43.155Z,89.00
2022-11-18T02:59:13.982Z,88.50
2022-11-18T03:01:44.801Z,87.90
2022-11-18T03:04:18.710Z,88.00
2022-11-18T03:06:55.305Z,88.20
2022-11-18T03:09:26.645Z,87.80
2022-11-18T03:12:17.993Z,88.10
2022-11-18T03:15:26.001Z,87.60
2022-11-18T03:18:19.364Z,87.50
2022-11-18T03:21:14.717Z,86.80
2022-11-18T03:24:16.819Z,87.00
2022-11-18T03:26:53.622Z,87.30
2022-11-18T03:29:29.237Z,87.10
2022-11-18T03:32:14.563Z,87.00
2022-11-18T03:34:47.914Z,86.80
2022-11-18T03:37:21.307Z,86.50
2022-11-18T03:39:54.755Z,86.50
2022-11-18T03:42:36.959Z,85.60
2022-11-18T03:45:10.371Z,84.90
2022-11-18T03:47:43.960Z,85.10
2022-11-18T03:50:22.337Z,85.10
2022-11-18T03:52:57.772Z,84.80
2022-11-18T03:55:31.179Z,84.50
2022-11-18T03:58:19.765Z,84.90
2022-11-18T04:00:53.126Z,84.50
2022-11-18T04:03:25.917Z,84.00
2022-11-18T04:05:59.355Z,83.40
2022-11-18T04:08:32.738Z,83.10
2022-11-18T04:11:06.109Z,82.80
2022-11-18T04:13:39.579Z,82.70
2022-11-18T04:16:11.004Z,83.10
2022-11-18T04:18:42.314Z,82.90
2022-11-18T04:21:49.055Z,81.80
2022-11-18T04:24:08.089Z,83.00
2022-11-18T04:26:44.946Z,83.00
2022-11-18T04:29:29.469Z,81.30
2022-11-18T04:33:15.563Z,81.30
2022-11-18T04:38:08.120Z,81.80
2022-11-18T04:40:39.143Z,82.30
2022-11-18T04:43:10.324Z,81.60
2022-11-18T04:45:41.374Z,81.60
2022-11-18T04:48:12.618Z,82.10
2022-11-18T04:50:43.523Z,81.70
2022-11-18T04:53:14.584Z,81.20
2022-11-18T04:55:45.726Z,80.60
2022-11-18T04:58:17.111Z,79.90
2022-11-18T05:00:47.955Z,80.10
2022-11-18T05:03:18.940Z,80.40
2022-11-18T05:05:50.202Z,80.80
2022-11-18T05:08:21.239Z,80.60
2022-11-18T05:10:52.519Z,80.90
2022-11-18T05:13:23.466Z,80.40
2022-11-18T05:15:54.658Z,80.50
2022-11-18T05:18:25.944Z,80.30
2022-11-18T05:20:56.695Z,78.90
2022-11-18T05:23:29.260Z,79.40
2022-11-18T05:26:02.609Z,79.00
2022-11-18T05:28:32.762Z,79.80
2022-11-18T05:31:06.916Z,79.90
2022-11-18T05:33:38.052Z,80.10
2022-11-18T05:36:11.756Z,80.60
2022-11-18T05:38:43.551Z,80.90
2022-11-18T05:41:21.240Z,81.20
2022-11-18T05:43:51.793Z,81.20
2022-11-18T05:46:22.569Z,81.00
2022-11-18T05:48:53.706Z,81.20
2022-11-18T05:51:25.228Z,81.30
2022-11-18T05:53:57.248Z,81.80
2022-11-18T05:56:50.567Z,80.40
2022-11-18T06:02:21.139Z,79.50
2022-11-18T06:04:57.523Z,79.20
2022-11-18T06:07:31.941Z,79.20
2022-11-18T06:10:06.060Z,79.00
2022-11-18T06:12:39.674Z,77.00
2022-11-18T06:15:16.807Z,76.70
2022-11-18T06:17:50.168Z,76.80
2022-11-18T06:20:23.349Z,75.80
2022-11-18T06:22:56.986Z,76.20
2022-11-18T06:25:28.238Z,75.20
2022-11-18T06:28:02.708Z,74.80
2022-11-18T06:30:33.926Z,74.10
2022-11-18T06:33:04.991Z,74.10
2022-11-18T06:35:36.194Z,74.30
2022-11-18T06:38:07.204Z,73.30
2022-11-18T06:40:38.773Z,72.10
2022-11-18T06:43:28.579Z,72.50
2022-11-18T06:46:21.158Z,72.20
2022-11-18T06:48:52.170Z,72.30
2022-11-18T06:51:23.663Z,72.30
2022-11-18T06:53:54.885Z,72.30
2022-11-18T06:56:26.593Z,72.00
2022-11-18T06:59:01.509Z,71.50
2022-11-18T07:01:34.174Z,71.40
2022-11-18T07:04:05.776Z,70.90
2022-11-18T07:06:42.876Z,70.90
2022-11-18T07:09:14.502Z,71.10
2022-11-18T07:11:45.256Z,71.30
2022-11-18T07:14:16.934Z,70.60
2022-11-18T07:16:48.014Z,71.30
2022-11-18T07:19:19.539Z,71.60
2022-11-18T07:21:51.184Z,71.10
2022-11-18T07:24:22.160Z,70.60
2022-11-18T07:26:54.505Z,70.70
2022-11-18T07:29:26.432Z,70.10
2022-11-18T07:32:57.640Z,70.40
2022-11-18T07:35:06.735Z,69.30
2022-11-18T07:37:44.825Z,69.50
2022-11-18T07:40:31.222Z,68.40
2022-11-18T07:46:15.671Z,70.10
2022-11-18T07:48:39.340Z,69.80
2022-11-18T07:51:10.350Z,69.50
2022-11-18T07:53:41.471Z,69.40
2022-11-18T07:56:13.039Z,69.50
2022-11-18T07:58:45.562Z,68.80
2022-11-18T08:01:18.349Z,69.70
2022-11-18T08:03:50.109Z,69.40
2022-11-18T08:06:22.449Z,68.30
2022-11-18T08:08:53.706Z,69.30
2022-11-18T08:11:24.676Z,69.10
2022-11-18T08:14:18.290Z,68.20
2022-11-18T08:16:33.127Z,68.40
2022-11-18T08:19:04.095Z,68.80
2022-11-18T08:30:14.553Z,68.80
2022-11-18T08:32:45.660Z,68.70
2022-11-18T08:35:16.790Z,69.00
2022-11-18T08:37:47.736Z,68.90
2022-11-18T08:40:19.187Z,69.10
2022-11-18T08:42:50.357Z,69.20
2022-11-18T08:45:21.698Z,69.20
2022-11-18T08:47:53.252Z,69.30
2022-11-18T08:50:24.210Z,69.60
2022-11-18T08:52:55.336Z,69.50
2022-11-18T08:55:26.286Z,68.00
2022-11-18T08:57:57.618Z,67.80
2022-11-18T09:03:34.270Z,67.40
2022-11-18T09:06:15.947Z,67.30
2022-11-18T09:08:47.041Z,67.50
2022-11-18T09:11:33.247Z,67.70
2022-11-18T09:16:37.202Z,68.10
2022-11-18T09:19:32.117Z,68.40
2022-11-18T09:21:42.371Z,68.40
2022-11-18T09:24:13.471Z,68.90
2022-11-18T09:26:53.462Z,68.70
2022-11-18T09:29:26.120Z,67.90
2022-11-18T09:31:58.513Z,68.10
2022-11-18T09:34:29.739Z,68.00
2022-11-18T09:37:00.693Z,68.40
2022-11-18T09:43:08.835Z,68.40
2022-11-18T09:45:42.336Z,68.60
2022-11-18T09:48:23.108Z,68.70
2022-11-18T09:50:55.149Z,68.40
2022-11-18T09:53:29.067Z,68.80
2022-11-18T09:56:01.494Z,68.80
2022-11-18T09:58:39.443Z,69.00
2022-11-18T10:01:18.736Z,69.30
2022-11-18T10:04:09.995Z,69.20
2022-11-18T10:06:42.123Z,69.50
2022-11-18T10:09:15.616Z,69.60
2022-11-18T10:12:05.784Z,69.70
2022-11-18T10:14:45.492Z,70.20
2022-11-18T10:17:48.003Z,70.50
2022-11-18T10:20:33.647Z,70.60
2022-11-18T10:23:19.459Z,70.60
2022-11-18T10:25:53.873Z,70.70
2022-11-18T10:28:33.792Z,70.90
2022-11-18T10:32:08.346Z,71.20
2022-11-18T10:40:29.783Z,71.60
2022-11-18T10:43:03.055Z,71.90
2022-11-18T10:52:16.076Z,71.90
2022-11-18T10:55:11.405Z,72.30
2022-11-18T11:00:57.344Z,72.50
2022-11-18T11:03:32.048Z,72.70
2022-11-18T11:06:51.150Z,72.70
2022-11-18T11:09:34.829Z,72.60
2022-11-18T11:12:13.208Z,72.80
2022-11-18T11:15:01.854Z,72.90
2022-11-18T11:17:41.054Z,73.20
2022-11-18T11:20:26.279Z,73.40
2022-11-18T11:22:59.048Z,73.40
2022-11-18T11:28:53.256Z,73.90
2022-11-18T11:31:29.380Z,74.10
2022-11-18T11:34:16.355Z,74.50
2022-11-18T11:37:21.018Z,74.70
2022-11-18T11:40:12.623Z,74.60
2022-11-18T11:43:34.146Z,74.60
2022-11-18T11:46:19.654Z,74.40
2022-11-18T11:49:11.077Z,74.20
2022-11-18T11:52:21.191Z,74.30
2022-11-18T11:55:01.712Z,74.40
2022-11-18T11:57:58.650Z,74.50
2022-11-18T12:00:30.068Z,74.60
2022-11-18T12:03:06.568Z,74.60
2022-11-18T12:05:38.720Z,74.70
2022-11-18T12:08:24.085Z,75.10
2022-11-18T12:11:21.345Z,75.30
2022-11-18T12:14:18.989Z,75.30
2022-11-18T12:16:54.690Z,75.50
2022-11-18T12:20:30.341Z,75.60
2022-11-18T12:23:31.055Z,75.80
2022-11-18T12:26:00.591Z,76.00
2022-11-18T12:28:42.227Z,76.10
2022-11-18T12:31:26.504Z,76.20
2022-11-18T12:34:05.512Z,76.20
2022-11-18T12:36:50.640Z,76.50
2022-11-18T12:39:41.426Z,76.50
2022-11-18T12:43:01.404Z,76.60
2022-11-18T12:45:49.409Z,76.70
2022-11-18T12:48:43.040Z,76.90
2022-11-18T12:54:40.165Z,77.00
2022-11-18T12:57:31.780Z,77.20
2022-11-18T13:00:22.723Z,77.20
2022-11-18T13:03:10.708Z,77.20
2022-11-18T13:05:50.213Z,77.40
2022-11-18T13:12:33.325Z,77.60
2022-11-18T13:25:00.704Z,78.30
2022-11-18T13:27:46.196Z,78.40
2022-11-18T13:30:19.836Z,78.60
2022-11-18T13:32:53.865Z,78.60
2022-11-18T13:35:28.630Z,78.80
2022-11-18T13:38:02.392Z,78.90
2022-11-18T13:40:38.072Z,78.90
2022-11-18T13:43:10.262Z,78.90
2022-11-18T13:45:43.978Z,78.90
2022-11-18T13:48:18.888Z,79.20
2022-11-18T13:50:55.275Z,79.20
2022-11-18T13:53:33.572Z,79.30
2022-11-18T13:56:09.373Z,79.10
2022-11-18T13:59:15.771Z,79.00
2022-11-18T14:01:30.467Z,79.00
2022-11-18T14:04:06.353Z,79.00
2022-11-18T14:06:45.152Z,79.00
2022-11-18T14:13:02.555Z,79.60
2022-11-18T14:19:30.242Z,79.90
2022-11-18T14:22:26.203Z,80.10
2022-11-18T14:24:56.787Z,79.80
2022-11-18T14:27:45.181Z,79.50
2022-11-18T14:34:08.324Z,79.90
2022-11-18T14:36:41.035Z,80.20
2022-11-18T14:39:34.099Z,80.60
2022-11-18T14:42:06.854Z,80.80
2022-11-18T14:44:37.728Z,81.10
2022-11-18T14:47:11.097Z,81.30
2022-11-18T14:49:41.954Z,81.80
2022-11-18T14:52:16.138Z,82.00
2022-11-18T14:57:58.439Z,83.70
2022-11-18T15:00:56.196Z,84.60
2022-11-18T15:03:27.171Z,85.10
2022-11-18T15:05:58.162Z,85.20
2022-11-18T15:08:29.185Z,85.60
2022-11-18T15:10:59.993Z,85.90
2022-11-18T15:13:33.888Z,85.80
2022-11-18T15:16:17.698Z,85.70
2022-11-18T15:18:54.404Z,86.20
2022-11-18T15:27:56.013Z,86.40
2022-11-18T15:30:29.719Z,86.20
2022-11-18T15:33:00.711Z,86.40
2022-11-18T15:35:31.638Z,86.70
2022-11-18T15:40:54.086Z,86.50
2022-11-18T15:43:24.768Z,86.50
2022-11-18T15:46:06.549Z,86.50
2022-11-18T15:48:39.452Z,86.30
2022-11-18T15:51:12.302Z,85.90
2022-11-18T15:54:09.211Z,85.70
2022-11-18T15:59:32.995Z,86.20
2022-11-18T16:02:05.582Z,86.60
2022-11-18T16:04:36.572Z,87.30
2022-11-18T16:07:07.452Z,87.40
2022-11-18T16:09:55.366Z,87.40
2022-11-18T16:12:43.817Z,87.60
2022-11-18T16:15:38.309Z,87.80
2022-11-18T16:18:09.224Z,87.60
2022-11-18T16:20:49.116Z,87.60
2022-11-18T16:23:19.927Z,86.60
2022-11-18T16:29:18.522Z,86.50
2022-11-18T16:31:57.712Z,86.20
2022-11-18T16:35:22.395Z,86.10
2022-11-18T16:37:57.636Z,86.00
2022-11-18T16:40:31.286Z,85.60
2022-11-18T16:43:05.959Z,85.50
2022-11-18T16:49:19.955Z,85.50
2022-11-18T16:51:54.523Z,85.40
2022-11-18T16:54:45.201Z,85.00
2022-11-18T16:57:08.188Z,84.70
2022-11-18T16:59:43.198Z,84.50
2022-11-18T17:02:28.289Z,84.40
2022-11-18T17:05:06.443Z,84.30
2022-11-18T17:08:27.245Z,84.40
2022-11-18T17:10:58.367Z,84.30
2022-11-18T17:13:30.528Z,84.30
2022-11-18T17:16:04.158Z,84.40
2022-11-18T17:18:37.713Z,84.30
2022-11-18T17:21:20.034Z,84.40
2022-11-18T17:23:52.291Z,84.60
2022-11-18T17:26:25.727Z,84.70
2022-11-18T17:28:58.399Z,84.60
2022-11-18T17:31:29.415Z,84.60
2022-11-18T17:34:00.386Z,84.80
2022-11-18T17:36:32.202Z,86.00
2022-11-18T17:39:03.833Z,85.10
2022-11-18T17:41:52.167Z,85.20
2022-11-18T17:44:26.271Z,85.40
2022-11-18T17:46:57.065Z,85.60
2022-11-18T17:49:27.988Z,85.60
2022-11-18T17:51:58.811Z,85.90
2022-11-18T17:57:23.738Z,86.30
2022-11-18T17:59:56.957Z,87.70
2022-11-18T18:02:27.848Z,87.10
2022-11-18T18:04:59.260Z,87.40
2022-11-18T18:07:35.009Z,87.60
2022-11-18T18:10:06.071Z,87.70
2022-11-18T18:12:55.922Z,87.70
2022-11-18T18:15:26.805Z,87.70
2022-11-18T18:18:07.858Z,87.80
2022-11-18T18:20:41.342Z,87.70
2022-11-18T18:23:12.172Z,87.90
2022-11-18T18:25:42.868Z,87.90
2022-11-18T18:28:14.392Z,89.00
2022-11-18T18:30:47.524Z,88.00
2022-11-18T18:33:21.000Z,88.30
2022-11-18T18:35:52.894Z,88.40
2022-11-18T18:38:23.793Z,88.40
2022-11-18T18:40:54.805Z,88.70
2022-11-18T18:43:25.684Z,88.80
2022-11-18T18:46:05.879Z,88.90
2022-11-18T18:48:36.743Z,89.00
2022-11-18T18:51:09.555Z,89.10
2022-11-18T18:53:40.373Z,89.00
2022-11-18T18:56:11.758Z,89.00
2022-11-18T18:58:44.001Z,89.20
2022-11-18T19:01:16.953Z,89.10
2022-11-18T19:03:48.307Z,89.00
2022-11-18T19:09:01.582Z,89.30
2022-11-18T19:11:49.943Z,89.30
2022-11-18T19:14:21.925Z,89.30
2022-11-18T19:16:53.405Z,89.50
2022-11-18T19:19:44.312Z,89.40
2022-11-18T19:22:17.028Z,89.70
2022-11-18T19:24:51.125Z,89.70
2022-11-18T19:27:22.791Z,90.00
2022-11-18T19:29:53.575Z,90.00
2022-11-18T19:32:24.571Z,90.00
2022-11-18T19:34:55.354Z,90.00
2022-11-18T19:37:26.182Z,90.20
2022-11-18T19:39:57.047Z,90.20
2022-11-18T19:42:28.249Z,90.20
2022-11-18T19:44:59.068Z,90.30
2022-11-18T19:47:30.242Z,90.30
2022-11-18T19:50:01.224Z,90.30
2022-11-18T19:52:32.243Z,90.40
2022-11-18T19:55:03.031Z,90.50
2022-11-18T19:57:34.902Z,90.60
2022-11-18T20:00:06.283Z,90.70
2022-11-18T20:02:39.132Z,90.80
2022-11-18T20:05:27.772Z,90.90
2022-11-18T20:07:58.870Z,90.80
2022-11-18T20:10:29.647Z,90.80
2022-11-18T20:13:00.439Z,90.80
2022-11-18T20:15:31.249Z,90.90
2022-11-18T20:18:02.810Z,91.00
2022-11-18T20:20:33.796Z,91.00
2022-11-18T20:23:06.748Z,91.00
2022-11-18T20:25:38.348Z,91.00
2022-11-18T20:28:11.432Z,91.10
2022-11-18T20:30:41.340Z,91.20
2022-11-18T20:33:12.118Z,91.10
2022-11-18T20:35:42.969Z,91.20
2022-11-18T20:38:16.579Z,91.30
2022-11-18T20:40:47.302Z,91.10
2022-11-18T20:43:18.862Z,91.30
2022-11-18T20:45:52.080Z,91.30
2022-11-18T20:48:23.534Z,91.40
2022-11-18T20:50:54.558Z,91.30
2022-11-18T20:53:26.837Z,91.40
2022-11-18T20:55:57.640Z,91.40
2022-11-18T20:58:28.467Z,91.40
2022-11-18T21:01:01.742Z,91.40
2022-11-18T21:03:31.646Z,91.40
2022-11-18T21:06:07.355Z,91.40
2022-11-18T21:08:37.079Z,91.30
2022-11-18T21:11:11.075Z,91.30
2022-11-18T21:14:00.280Z,91.30
2022-11-18T21:16:31.198Z,91.10
2022-11-18T21:19:02.238Z,91.10
2022-11-18T21:21:53.087Z,91.10
2022-11-18T21:24:32.056Z,90.90
2022-11-18T21:27:04.677Z,90.90
2022-11-18T21:29:35.983Z,91.00
2022-11-18T21:32:07.019Z,90.90
2022-11-18T21:34:37.813Z,90.80
2022-11-18T21:37:08.501Z,90.80
2022-11-18T21:39:39.323Z,90.80
2022-11-18T21:42:10.157Z,90.80
2022-11-18T21:44:42.855Z,90.80
2022-11-18T21:47:13.797Z,90.80
2022-11-18T21:49:44.961Z,90.80
2022-11-18T21:52:21.722Z,90.90
2022-11-18T21:54:52.607Z,90.90
2022-11-18T21:57:23.433Z,90.90
2022-11-18T21:59:54.464Z,90.80
2022-11-18T22:02:31.431Z,90.80
2022-11-18T22:05:03.733Z,90.80
2022-11-18T22:07:34.829Z,90.80
2022-11-18T22:10:06.261Z,90.60
2022-11-18T22:12:37.295Z,90.60
2022-11-18T22:15:09.892Z,90.50
2022-11-18T22:17:40.854Z,90.40
2022-11-18T22:20:13.456Z,90.40
2022-11-18T22:26:05.111Z,90.20
2022-11-18T22:28:36.006Z,90.10
2022-11-18T22:31:11.956Z,90.10
2022-11-18T22:33:45.510Z,90.10
2022-11-18T22:36:18.393Z,90.00
2022-11-18T22:38:50.070Z,90.00
2022-11-18T22:41:43.373Z,90.00
2022-11-18T22:44:18.677Z,90.00
2022-11-18T22:46:49.451Z,90.10
2022-11-18T22:49:20.703Z,90.00
2022-11-18T22:51:52.039Z,90.00
2022-11-18T22:54:38.220Z,90.00
2022-11-18T22:56:56.745Z,90.10
2022-11-18T22:59:27.607Z,90.00
2022-11-18T23:01:58.400Z,90.00
2022-11-18T23:04:29.205Z,90.10
2022-11-18T23:07:00.252Z,90.00
2022-11-18T23:09:31.244Z,90.00
2022-11-18T23:12:19.642Z,90.10
2022-11-18T23:14:50.575Z,90.00
2022-11-18T23:17:21.951Z,90.10
2022-11-18T23:19:54.503Z,90.10
2022-11-18T23:22:25.192Z,90.00
2022-11-18T23:24:55.852Z,90.00
2022-11-18T23:27:26.649Z,90.10
2022-11-18T23:29:59.243Z,90.10
2022-11-18T23:32:35.682Z,90.10
2022-11-18T23:35:06.984Z,90.10
2022-11-18T23:37:38.529Z,90.10
2022-11-18T23:40:10.401Z,90.20
2022-11-18T23:42:41.330Z,90.20
2022-11-18T23:45:12.916Z,90.20
2022-11-18T23:47:43.582Z,90.30
2022-11-18T23:50:14.638Z,90.30
2022-11-18T23:52:48.740Z,90.30
2022-11-18T23:55:19.874Z,90.30
2022-11-18T23:57:50.545Z,90.40
